Pago Pago, AS

12:24 AM SST on September 01, 2014 (GMT -1100)
Lanai City | Change Station
CLOSE
Current Station
Airport
Location: Lanai City,
Elevation: 1309 ft
Nearby Weather Stations

Elev 1309 ft 20.79 °N, 156.95 °W | Updated 28 minutes ago

Clear
Clear
69 °F
Feels Like 69 °F
N
6
Wind Variable Wind from East

Today
High -- | Low -- °F
--% Chance of Precip.
Yesterday
High -- | Low -- °F
Precip. -- in
6:27 AM 6:18 PM
Waxing Crescent, 40% visible
Pressure 30.01 in
Visibility 10.0 miles
Clouds Clear
Dew Point 69 °F
Humidity 100%
Rainfall 0.00 in
Snow Depth Not available.
UV 0 out of 12
Pollen Not available.
Air Quality Not available.
Flu Activity Not available.
METAR PHNY 011056Z AUTO 08005KT 10SM CLR 21/21 A3008 RMK AO2 TSNO T02050205 SLP163 $

More Conditions Fewer Conditions

Pressure 30.01 in
Visibility 10.0 miles
Clouds Clear
Dew Point 69 °F
Humidity 100%
Rainfall 0.00 in
Snow Depth Not available.
UV 0 out of 12
Pollen Not available.
Air Quality Not available.
Flu Activity Not available.
METAR PHNY 011056Z AUTO 08005KT 10SM CLR 21/21 A3008 RMK AO2 TSNO T02050205 SLP163 $

More Conditions Fewer Conditions

10-Day Weather Forecast

Almanac

Astronomy

Sep. 01, 2014 Rise Set
Actual Time 6:27 AM SST 6:18 PM SST
Civil Twilight 6:06 AM SST 6:39 PM SST
Nautical Twilight 5:41 AM SST 7:04 PM SST
Astronomical Twilight 5:16 AM SST 7:29 PM SST
Moon 11:27 AM SST No Moon Set
Length of Visible Light 12h 33m
Length of Day
11h 50m
Tomorrow will be 0m 44s longer.
Waxing Crescent, 40% of the Moon is Illuminated
Today
Waxing Crescent
Sep 2
First Quarter
Sep 8
Full
Sep 15
Last Quarter
Sep 24
New

Community

WunderPhotos

Upload Photos

1,749,188 photos uploaded!

Nearby

Snow Depth

Station Depth Elevation
No new snow has been reported.

Earthquake Activity

City Distance Mag. Time & Date
No recent earthquake activity has been reported nearby.
Minimum magnitude displayed is 2.5.

Coastal Water Temperatures

Place Temperature
No Stations Reporting

Nearby Weather Stations